Time;durP1;ratioP1;P1;durP2;ratioP2;P2;SDS_P1;SDS_P2;PMS_P1;PMS_P2;Temp;Humidity;BMP_temperature;BMP_pressure;BME280_temperature;BME280_humidity;BME280_pressure;Samples;Min_cycle;Max_cycle;Signal;HPM_P1;HPM_P2
2023/10/12 05:07:54;;;;;;;;;;;;;;;18.94;54.56;97258.09;4246014;27;10342;-61
2023/10/12 05:10:17;;;;;;;;;;;;;;;19.30;54.26;97254.28;4227708;28;6334;-60
2023/10/12 05:12:39;;;;;;;;;;;;;;;19.53;53.96;97258.78;4227252;28;5664;-60
2023/10/12 05:15:11;;;;;;;;;;;;;;;19.69;53.51;97258.84;4222335;28;5890;-61
2023/10/12 05:17:32;;;;;;;;;;;;;;;19.86;53.04;97250.03;4223530;28;5697;-62
2023/10/12 05:19:54;;;;;;;;;;;;;;;19.95;52.93;97249.41;4221839;28;5783;-61
2023/10/12 05:22:15;;;;;;;;;;;;;;;20.03;52.78;97250.84;4220445;28;5836;-60
2023/10/12 05:24:38;;;;;;;;;;;;;;;20.13;52.58;97258.28;4228195;28;5082;-60
2023/10/12 05:27:09;;;;;;;;;;;;;;;20.18;52.13;97256.50;4214281;28;5805;-60
2023/10/12 05:29:35;;;;;;;;;;;;;;;20.24;52.15;97254.72;4223399;28;5685;-61
2023/10/12 05:32:05;;;;;;;;;;;;;;;20.27;51.79;97256.91;4225716;28;5686;-60
2023/10/12 05:34:44;;;;;;;;;;;;;;;20.32;51.48;97268.53;4222878;28;5694;-61
2023/10/12 05:37:16;;;;;;;;;;;;;;;20.35;51.42;97265.38;4222746;28;5744;-60
2023/10/12 05:39:46;;;;;;;;;;;;;;;20.38;51.09;97268.63;4214694;28;5690;-60
2023/10/12 05:42:08;;;;;;;;;;;;;;;20.42;50.82;97275.16;4214524;28;5828;-60
2023/10/12 05:44:30;;;;;;;;;;;;;;;20.42;50.98;97276.00;4217760;28;5665;-61
2023/10/12 05:46:59;;;;;;;;;;;;;;;20.43;50.52;97287.53;4223373;28;5672;-62
2023/10/12 05:49:23;;;;;;;;;;;;;;;20.46;50.31;97292.41;4231333;28;5656;-61
2023/10/12 05:51:44;;;;;;;;;;;;;;;20.46;50.30;97289.72;4231352;28;5760;-60
2023/10/12 05:54:07;;;;;;;;;;;;;;;20.47;50.32;97291.34;4231396;28;5664;-61
2023/10/12 05:56:30;;;;;;;;;;;;;;;20.48;49.92;97296.47;4231140;28;5664;-61
2023/10/12 05:58:52;;;;;;;;;;;;;;;20.48;49.54;97296.47;4231413;28;6346;-61
2023/10/12 06:01:31;;;;;;;;;;;;;;;20.48;49.58;97306.41;4231449;28;5122;-61
2023/10/12 06:03:56;;;;;;;;;;;;;;;20.48;49.17;97301.03;4231237;28;5692;-61
2023/10/12 06:06:19;;;;;;;;;;;;;;;20.48;49.13;97296.47;4231065;28;5645;-61
2023/10/12 06:08:41;;;;;;;;;;;;;;;20.49;48.96;97302.66;4219857;28;5661;-61
2023/10/12 06:11:04;;;;;;;;;;;;;;;20.49;48.75;97308.03;4219989;28;5713;-61
2023/10/12 06:13:32;;;;;;;;;;;;;;;20.49;48.43;97302.66;4219495;28;5673;-61
2023/10/12 06:15:54;;;;;;;;;;;;;;;20.49;48.30;97310.72;4220133;28;5664;-61
2023/10/12 06:18:21;;;;;;;;;;;;;;;20.49;48.03;97316.91;4219971;28;5664;-61
2023/10/12 06:20:45;;;;;;;;;;;;;;;20.50;47.65;97313.19;4219766;28;5760;-61
2023/10/12 06:23:13;;;;;;;;;;;;;;;20.50;47.61;97321.25;4219999;28;5788;-61
2023/10/12 06:25:38;;;;;;;;;;;;;;;20.50;47.77;97317.72;4219867;28;5657;-61
2023/10/12 06:28:17;;;;;;;;;;;;;;;20.52;47.20;97331.75;4219196;28;5661;-61
2023/10/12 06:30:40;;;;;;;;;;;;;;;20.52;47.21;97323.69;4219609;28;5661;-61
2023/10/12 06:33:02;;;;;;;;;;;;;;;20.52;47.17;97323.69;4215735;28;5697;-61
2023/10/12 06:35:28;;;;;;;;;;;;;;;20.52;46.66;97329.06;4203016;28;5741;-62
2023/10/12 06:40:47;;;;;;;;;;;;;;;20.53;46.40;97336.06;4200138;28;5717;-61
2023/10/12 06:45:51;;;;;;;;;;;;;;;20.52;45.72;97340.63;4202641;28;7695;-61
2023/10/12 06:48:23;;;;;;;;;;;;;;;20.53;45.91;97341.44;4202512;28;5694;-61
2023/10/12 06:50:48;;;;;;;;;;;;;;;20.54;45.84;97343.06;4202660;28;5690;-62
2023/10/12 06:53:10;;;;;;;;;;;;;;;20.54;45.65;97345.75;4202521;28;5670;-61
2023/10/12 06:55:32;;;;;;;;;;;;;;;20.54;45.31;97348.44;4202449;28;5678;-61
2023/10/12 06:57:54;;;;;;;;;;;;;;;20.56;45.27;97362.44;4202306;28;5812;-61
2023/10/12 07:00:18;;;;;;;;;;;;;;;20.56;45.14;97354.38;4202477;28;5678;-61
2023/10/12 07:02:43;;;;;;;;;;;;;;;20.56;44.99;97362.44;4202395;28;5693;-61
2023/10/12 07:05:05;;;;;;;;;;;;;;;20.56;44.84;97365.09;4206630;28;6580;-60
2023/10/12 07:07:29;;;;;;;;;;;;;;;20.58;44.82;97381.78;4218971;28;5668;-61
2023/10/12 07:09:51;;;;;;;;;;;;;;;20.58;44.68;97371.84;4219232;28;6334;-61
2023/10/12 07:12:17;;;;;;;;;;;;;;;20.60;44.65;97375.13;4218774;28;5645;-61
2023/10/12 07:14:46;;;;;;;;;;;;;;;20.63;44.27;97380.03;4218881;28;5649;-61
2023/10/12 07:17:08;;;;;;;;;;;;;;;20.65;43.98;97379.78;4218855;28;5653;-62
2023/10/12 07:19:31;;;;;;;;;;;;;;;20.66;43.95;97377.91;4217875;28;5680;-61
2023/10/12 07:21:55;;;;;;;;;;;;;;;20.68;44.30;97381.97;4218779;28;5672;-62
2023/10/12 07:24:19;;;;;;;;;;;;;;;20.71;44.16;97391.41;4218845;28;5646;-62
2023/10/12 07:26:48;;;;;;;;;;;;;;;20.70;43.72;97385.22;4218241;28;5641;-62
2023/10/12 07:29:19;;;;;;;;;;;;;;;20.71;43.43;97397.59;4218880;28;5661;-61
2023/10/12 07:31:42;;;;;;;;;;;;;;;20.74;43.58;97393.63;4218445;28;5971;-64
2023/10/12 07:34:07;;;;;;;;;;;;;;;20.75;43.15;97397.94;4218831;28;5664;-61
2023/10/12 07:36:44;;;;;;;;;;;;;;;20.76;43.53;97397.69;4218769;28;5748;-61
2023/10/12 07:39:17;;;;;;;;;;;;;;;20.79;43.38;97402.56;4218375;28;5777;-61
2023/10/12 07:41:41;;;;;;;;;;;;;;;20.79;43.12;97405.25;4218469;28;5759;-61
2023/10/12 07:44:05;;;;;;;;;;;;;;;20.82;43.08;97403.94;4218847;28;5196;-61
2023/10/12 07:46:27;;;;;;;;;;;;;;;20.83;43.06;97401.03;4218179;28;5911;-61
2023/10/12 07:48:49;;;;;;;;;;;;;;;20.86;43.16;97400.56;4218317;28;5783;-61
2023/10/12 07:51:16;;;;;;;;;;;;;;;20.90;43.03;97403.56;4218249;28;5661;-61
2023/10/12 07:53:39;;;;;;;;;;;;;;;20.92;43.17;97404.94;4209214;28;5717;-62
2023/10/12 07:56:01;;;;;;;;;;;;;;;20.93;43.55;97405.75;4201369;28;5678;-62
2023/10/12 07:58:23;;;;;;;;;;;;;;;20.94;43.28;97400.13;4201106;28;5671;-61
2023/10/12 08:00:51;;;;;;;;;;;;;;;20.96;43.30;97399.91;4201379;28;5812;-62
2023/10/12 08:03:18;;;;;;;;;;;;;;;20.97;43.33;97406.91;4201362;28;5710;-61
2023/10/12 08:05:56;;;;;;;;;;;;;;;21.02;43.64;97398.09;4201351;28;6482;-62
2023/10/12 08:08:33;;;;;;;;;;;;;;;21.05;43.33;97405.66;4201391;28;5750;-62
2023/10/12 08:10:59;;;;;;;;;;;;;;;21.07;43.43;97395.50;4201250;28;5773;-62
2023/10/12 08:13:26;;;;;;;;;;;;;;;21.09;43.38;97388.00;4200979;28;5682;-63
2023/10/12 08:15:55;;;;;;;;;;;;;;;21.09;43.45;97393.38;4201048;28;6554;-60
2023/10/12 08:21:00;;;;;;;;;;;;;;;21.15;43.58;97392.38;4201162;28;5742;-61
2023/10/12 08:23:22;;;;;;;;;;;;;;;21.15;43.37;97381.63;4201276;28;5681;-62
2023/10/12 08:25:49;;;;;;;;;;;;;;;21.15;43.95;97377.06;4210313;28;5760;-62
2023/10/12 08:28:19;;;;;;;;;;;;;;;21.13;43.75;97373.81;4217488;28;5664;-61
2023/10/12 08:30:57;;;;;;;;;;;;;;;21.15;43.73;97370.88;4217546;28;6317;-62
2023/10/12 08:33:48;;;;;;;;;;;;;;;21.15;43.83;97378.94;4217904;28;5649;-62
2023/10/12 08:38:52;;;;;;;;;;;;;;;21.16;44.03;97377.88;4201236;28;5107;-62
2023/10/12 08:41:20;;;;;;;;;;;;;;;21.14;43.67;97370.06;4200776;28;5674;-62
2023/10/12 08:43:48;;;;;;;;;;;;;;;21.14;43.94;97367.38;4200716;28;5674;-62
2023/10/12 08:46:13;;;;;;;;;;;;;;;21.14;43.67;97371.94;4200887;28;5773;-60
2023/10/12 08:48:35;;;;;;;;;;;;;;;21.17;43.82;97371.44;4200624;28;5690;-62
2023/10/12 08:50:58;;;;;;;;;;;;;;;21.19;43.46;97372.03;4203742;28;5669;-62
2023/10/12 08:53:23;;;;;;;;;;;;;;;21.19;43.40;97380.09;4217771;28;5779;-62
2023/10/12 08:55:45;;;;;;;;;;;;;;;21.21;43.23;97381.47;4217260;28;5681;-62
2023/10/12 08:58:18;;;;;;;;;;;;;;;21.23;43.05;97384.72;4217500;28;5121;-62
2023/10/12 09:00:44;;;;;;;;;;;;;;;21.23;43.08;97391.97;4217329;28;5717;-62
2023/10/12 09:03:07;;;;;;;;;;;;;;;21.23;42.88;97389.28;4217622;28;5664;-62
2023/10/12 09:05:31;;;;;;;;;;;;;;;21.28;42.82;97388.56;4217719;28;5777;-62
2023/10/12 09:08:06;;;;;;;;;;;;;;;21.30;42.96;97389.97;4217586;28;5661;-62
2023/10/12 09:10:36;;;;;;;;;;;;;;;21.33;42.69;97389.47;4217557;28;5680;-62
2023/10/12 09:12:57;;;;;;;;;;;;;;;21.37;42.53;97387.09;4213971;28;5694;-61
2023/10/12 09:15:29;;;;;;;;;;;;;;;21.38;42.52;97375.28;4200754;28;5690;-61
2023/10/12 09:17:52;;;;;;;;;;;;;;;21.41;42.54;97375.63;4200744;28;5678;-61
2023/10/12 09:20:29;;;;;;;;;;;;;;;21.44;42.26;97375.09;4200710;28;5670;-60
2023/10/12 09:22:57;;;;;;;;;;;;;;;21.49;42.37;97379.72;4200492;28;5667;-61
2023/10/12 09:25:49;;;;;;;;;;;;;;;21.52;42.19;97368.50;4200437;28;5912;-61
2023/10/12 09:28:13;;;;;;;;;;;;;;;21.55;42.48;97362.59;4200236;28;5075;-62
2023/10/12 09:30:44;;;;;;;;;;;;;;;21.58;42.13;97361.28;4200317;28;5674;-61
2023/10/12 09:33:29;;;;;;;;;;;;;;;21.61;42.19;97369.66;4200379;28;5674;-62
2023/10/12 09:35:48;;;;;;;;;;;;;;;21.63;42.16;97364.03;4200520;28;5901;-62
2023/10/12 09:38:12;;;;;;;;;;;;;;;21.67;42.27;97367.88;4200324;28;5690;-62
2023/10/12 09:40:39;;;;;;;;;;;;;;;21.66;41.96;97377.00;4200556;28;6383;-62
2023/10/12 09:43:06;;;;;;;;;;;;;;;21.66;42.43;97377.81;4201590;28;5698;-62
2023/10/12 09:45:34;;;;;;;;;;;;;;;21.68;42.32;97372.19;4210952;28;5677;-62
2023/10/12 09:48:04;;;;;;;;;;;;;;;21.67;42.30;97375.94;4208887;28;5678;-61
2023/10/12 09:50:32;;;;;;;;;;;;;;;21.67;42.11;97378.63;4203592;28;5686;-62
2023/10/12 09:52:58;;;;;;;;;;;;;;;21.67;42.03;97378.63;4203778;28;5827;-61
2023/10/12 09:55:25;;;;;;;;;;;;;;;21.66;41.82;97375.13;4203863;28;5670;-62
2023/10/12 09:57:50;;;;;;;;;;;;;;;21.68;41.81;97380.25;4204469;28;5663;-60
2023/10/12 10:00:27;;;;;;;;;;;;;;;21.70;42.10;97383.50;4220385;28;6342;-62
2023/10/12 10:02:55;;;;;;;;;;;;;;;21.70;41.96;97378.13;4219965;28;5665;-61
2023/10/12 10:05:39;;;;;;;;;;;;;;;21.71;41.64;97382.44;4220240;28;5712;-61
2023/10/12 10:08:05;;;;;;;;;;;;;;;21.71;41.60;97383.25;4216086;28;5689;-61
2023/10/12 10:10:30;;;;;;;;;;;;;;;21.71;41.77;97374.38;4203103;28;5734;-61
2023/10/12 10:12:52;;;;;;;;;;;;;;;21.75;41.58;97364.75;4202922;28;5682;-61
2023/10/12 10:15:20;;;;;;;;;;;;;;;21.76;41.98;97369.88;4203109;28;5693;-61
2023/10/12 10:17:52;;;;;;;;;;;;;;;21.77;42.07;97358.06;4212139;28;5657;-61
2023/10/12 10:20:46;;;;;;;;;;;;;;;21.82;41.67;97353.78;4219661;28;5744;-61
2023/10/12 10:23:14;;;;;;;;;;;;;;;21.83;41.62;97363.47;4219614;28;5724;-61
2023/10/12 10:25:45;;;;;;;;;;;;;;;21.84;41.70;97357.84;4219714;28;5657;-62
2023/10/12 10:28:10;;;;;;;;;;;;;;;21.86;41.65;97371.03;4219378;28;5652;-61
2023/10/12 10:30:41;;;;;;;;;;;;;;;21.87;41.76;97372.69;4219749;28;5661;-61
2023/10/12 10:33:09;;;;;;;;;;;;;;;21.89;41.59;97366.00;4215833;28;6391;-61
2023/10/12 10:35:45;;;;;;;;;;;;;;;21.90;42.00;97367.63;4202777;28;5693;-61
2023/10/12 10:38:07;;;;;;;;;;;;;;;21.92;41.88;97370.88;4202939;28;5663;-61
2023/10/12 10:40:44;;;;;;;;;;;;;;;21.92;41.89;97362.78;4202540;28;5091;-61
2023/10/12 10:43:09;;;;;;;;;;;;;;;21.93;42.06;97369.81;4202543;28;5686;-61
2023/10/12 10:45:36;;;;;;;;;;;;;;;21.93;41.22;97356.34;4202669;28;5765;-61
2023/10/12 10:47:57;;;;;;;;;;;;;;;21.93;41.45;97361.72;4202553;28;6358;-61
2023/10/12 10:50:49;;;;;;;;;;;;;;;21.94;41.79;97352.56;4202773;28;5670;-61
2023/10/12 10:53:10;;;;;;;;;;;;;;;21.95;41.41;97351.50;4202384;28;5678;-62
2023/10/12 10:55:35;;;;;;;;;;;;;;;21.95;41.47;97354.19;4202233;28;5670;-62
2023/10/12 10:57:57;;;;;;;;;;;;;;;21.97;41.25;97351.25;4202397;28;5677;-62
2023/10/12 11:00:33;;;;;;;;;;;;;;;21.97;41.23;97345.88;4202336;28;5686;-62
2023/10/12 11:02:56;;;;;;;;;;;;;;;21.99;41.51;97343.75;4202422;28;5773;-62
2023/10/12 11:05:19;;;;;;;;;;;;;;;22.02;41.14;97341.38;4202278;28;6434;-61
2023/10/12 11:07:41;;;;;;;;;;;;;;;22.06;40.91;97337.13;4202154;28;5765;-61
2023/10/12 11:10:23;;;;;;;;;;;;;;;22.09;40.66;97333.13;4202323;28;5674;-62
2023/10/12 11:12:45;;;;;;;;;;;;;;;22.11;40.47;97335.56;4202113;28;5677;-61
2023/10/12 11:15:11;;;;;;;;;;;;;;;22.08;40.75;97326.94;4202374;28;5879;-62
2023/10/12 11:17:35;;;;;;;;;;;;;;;22.07;40.39;97325.28;4201998;28;5677;-62
2023/10/12 11:19:58;;;;;;;;;;;;;;;22.10;40.53;97317.81;4202135;28;5769;-61
2023/10/12 11:22:20;;;;;;;;;;;;;;;22.09;40.39;97317.00;4216323;28;6254;-61
2023/10/12 11:24:45;;;;;;;;;;;;;;;22.08;40.24;97315.34;4218717;28;5645;-61
2023/10/12 11:27:11;;;;;;;;;;;;;;;22.06;40.03;97309.41;4218283;28;5846;-61
2023/10/12 11:29:48;;;;;;;;;;;;;;;22.07;39.86;97303.75;4218616;28;5649;-62
2023/10/12 11:32:11;;;;;;;;;;;;;;;22.08;39.67;97300.03;4218721;28;5777;-62
2023/10/12 11:34:33;;;;;;;;;;;;;;;22.11;39.78;97298.69;4218889;28;5653;-62
2023/10/12 11:36:57;;;;;;;;;;;;;;;22.13;40.14;97301.13;4215770;28;5710;-62
2023/10/12 11:39:21;;;;;;;;;;;;;;;22.15;39.68;97299.00;4202096;28;5678;-62
2023/10/12 11:41:42;;;;;;;;;;;;;;;22.17;39.59;97307.63;4201807;28;5802;-61
2023/10/12 11:44:07;;;;;;;;;;;;;;;22.17;39.73;97296.84;4214293;28;5739;-62
2023/10/12 11:46:43;;;;;;;;;;;;;;;22.15;39.63;97296.28;4218402;28;5669;-62
2023/10/12 11:49:08;;;;;;;;;;;;;;;22.15;39.70;97293.59;4218444;28;5645;-61
2023/10/12 11:51:30;;;;;;;;;;;;;;;22.18;39.78;97296.59;4218232;28;5649;-62
2023/10/12 11:53:53;;;;;;;;;;;;;;;22.20;39.49;97289.09;4207459;28;5690;-61
2023/10/12 11:56:15;;;;;;;;;;;;;;;22.21;39.41;97273.75;4201299;28;5694;-61
2023/10/12 11:58:36;;;;;;;;;;;;;;;22.23;39.38;97275.09;4201321;28;5678;-61
2023/10/12 12:01:00;;;;;;;;;;;;;;;22.27;39.83;97270.81;4201390;28;5675;-61
2023/10/12 12:03:23;;;;;;;;;;;;;;;22.29;39.79;97266.00;4201264;28;5797;-61
2023/10/12 12:05:50;;;;;;;;;;;;;;;22.31;39.48;97263.88;4200518;28;5686;-61
2023/10/12 12:08:14;;;;;;;;;;;;;;;22.35;39.10;97261.47;4201210;28;5781;-61
2023/10/12 12:10:44;;;;;;;;;;;;;;;22.36;39.12;97258.53;4217903;28;5653;-62
2023/10/12 12:13:08;;;;;;;;;;;;;;;22.37;39.29;97252.06;4217851;28;5665;-61
2023/10/12 12:15:30;;;;;;;;;;;;;;;22.38;39.21;97253.69;4217858;28;5665;-61
2023/10/12 12:17:52;;;;;;;;;;;;;;;22.38;39.03;97255.56;4218155;28;5775;-61
2023/10/12 12:20:21;;;;;;;;;;;;;;;22.40;39.07;97247.22;4217882;28;5672;-62
2023/10/12 12:22:43;;;;;;;;;;;;;;;22.42;39.25;97242.38;4217980;28;5657;-62
2023/10/12 12:25:16;;;;;;;;;;;;;;;22.42;39.09;97240.50;4217709;28;5672;-61
2023/10/12 12:27:38;;;;;;;;;;;;;;;22.44;39.25;97249.16;4217805;28;5660;-60
2023/10/12 12:30:01;;;;;;;;;;;;;;;22.49;39.46;97245.69;4217769;28;5668;-61
2023/10/12 12:32:42;;;;;;;;;;;;;;;22.51;39.53;97243.53;4217930;28;5669;-62
2023/10/12 12:35:06;;;;;;;;;;;;;;;22.55;39.12;97250.06;4217773;28;5665;-62
2023/10/12 12:37:33;;;;;;;;;;;;;;;22.59;39.43;97246.56;4217969;28;5692;-61
2023/10/12 12:40:27;;;;;;;;;;;;;;;22.64;39.77;97243.91;4217679;28;5759;-61
2023/10/12 12:42:37;;;;;;;;;;;;;;;22.67;39.42;97238.00;4217562;28;5657;-61
2023/10/12 12:44:59;;;;;;;;;;;;;;;22.71;39.30;97232.91;4217710;28;5720;-61
2023/10/12 12:47:23;;;;;;;;;;;;;;;22.76;39.46;97237.50;4217843;28;5680;-61
2023/10/12 12:49:45;;;;;;;;;;;;;;;22.78;39.37;97232.69;4200863;28;5678;-60
2023/10/12 12:52:09;;;;;;;;;;;;;;;22.79;39.13;97234.31;4201030;28;5757;-61
2023/10/12 12:54:35;;;;;;;;;;;;;;;22.78;39.05;97219.22;4200939;28;5678;-61
2023/10/12 12:56:56;;;;;;;;;;;;;;;22.78;39.48;97224.59;4203704;28;5657;-61
2023/10/12 12:59:18;;;;;;;;;;;;;;;22.80;39.36;97222.44;4217569;28;5653;-61
2023/10/12 13:01:41;;;;;;;;;;;;;;;22.83;39.32;97219.22;4217602;28;5665;-61
2023/10/12 13:04:04;;;;;;;;;;;;;;;22.87;39.06;97214.97;4217414;28;5772;-61
2023/10/12 13:06:26;;;;;;;;;;;;;;;22.90;38.79;97220.66;4217418;28;5769;-61
2023/10/12 13:08:47;;;;;;;;;;;;;;;22.93;39.06;97211.22;4217701;28;5661;-61
2023/10/12 13:11:11;;;;;;;;;;;;;;;22.97;39.01;97212.31;4217437;28;5950;-62
2023/10/12 13:13:34;;;;;;;;;;;;;;;22.97;38.90;97214.22;4217418;28;5775;-61
2023/10/12 13:15:56;;;;;;;;;;;;;;;22.96;39.24;97208.00;4217398;28;5661;-61
2023/10/12 13:18:19;;;;;;;;;;;;;;;22.97;39.20;97214.22;4219630;28;5669;-62
2023/10/12 13:20:40;;;;;;;;;;;;;;;22.95;39.16;97209.09;4220731;28;5708;-61
2023/10/12 13:23:02;;;;;;;;;;;;;;;22.97;39.20;97206.13;4220632;28;6560;-62
2023/10/12 13:25:26;;;;;;;;;;;;;;;22.99;38.71;97210.19;4220502;28;5827;-62
2023/10/12 13:27:51;;;;;;;;;;;;;;;23.01;39.05;97199.16;4220360;28;5744;-62
2023/10/12 13:30:14;;;;;;;;;;;;;;;23.01;38.81;97207.25;4206800;28;5686;-61
2023/10/12 13:32:36;;;;;;;;;;;;;;;22.99;39.05;97203.97;4204001;28;5776;-61
2023/10/12 13:34:58;;;;;;;;;;;;;;;22.98;39.00;97203.16;4203865;28;5103;-61
2023/10/12 13:37:19;;;;;;;;;;;;;;;22.97;38.99;97204.22;4203878;28;5698;-61
2023/10/12 13:39:41;;;;;;;;;;;;;;;22.98;38.76;97203.16;4203682;28;5749;-60
2023/10/12 13:42:05;;;;;;;;;;;;;;;22.98;38.61;97211.25;4203597;28;5713;-61
2023/10/12 13:44:29;;;;;;;;;;;;;;;22.99;39.08;97198.56;4203565;28;5678;-61
2023/10/12 13:46:51;;;;;;;;;;;;;;;22.97;38.69;97196.16;4203738;28;5670;-61
2023/10/12 13:49:13;;;;;;;;;;;;;;;22.96;38.77;97197.22;4203479;28;5686;-61
2023/10/12 13:51:37;;;;;;;;;;;;;;;22.96;38.75;97194.53;4203329;28;5670;-61
2023/10/12 13:54:01;;;;;;;;;;;;;;;22.97;39.22;97192.63;4203396;28;5686;-61
2023/10/12 13:56:23;;;;;;;;;;;;;;;22.96;39.34;97194.53;4203346;28;5690;-62
2023/10/12 13:58:46;;;;;;;;;;;;;;;22.97;38.88;97188.06;4203203;28;6494;-61
2023/10/12 14:01:14;;;;;;;;;;;;;;;22.94;39.40;97186.69;4207620;28;5766;-61
2023/10/12 14:03:38;;;;;;;;;;;;;;;22.94;39.40;97184.00;4220104;28;5763;-62
2023/10/12 14:06:00;;;;;;;;;;;;;;;22.95;39.22;97182.13;4220191;28;5661;-62
2023/10/12 14:08:22;;;;;;;;;;;;;;;22.94;39.15;97178.63;4220313;28;5649;-61
2023/10/12 14:10:44;;;;;;;;;;;;;;;22.95;39.15;97176.72;4220019;28;5789;-62
2023/10/12 14:13:06;;;;;;;;;;;;;;;22.95;39.65;97171.34;4219905;28;5661;-61
2023/10/12 14:15:28;;;;;;;;;;;;;;;22.94;39.07;97178.63;4220095;28;5772;-62
2023/10/12 14:17:54;;;;;;;;;;;;;;;22.94;39.42;97172.41;4209512;28;5749;-61
2023/10/12 14:20:20;;;;;;;;;;;;;;;22.94;39.61;97167.03;4204800;28;5686;-61
2023/10/12 14:22:44;;;;;;;;;;;;;;;22.91;39.24;97168.38;4214439;28;5657;-62
2023/10/12 14:25:07;;;;;;;;;;;;;;;22.91;39.49;97178.34;4217310;28;5649;-63
2023/10/12 14:27:29;;;;;;;;;;;;;;;22.90;39.46;97177.53;4209485;28;5676;-62
2023/10/12 14:29:52;;;;;;;;;;;;;;;22.89;39.40;97169.72;4216567;28;5724;-62
2023/10/12 14:32:14;;;;;;;;;;;;;;;22.88;39.61;97162.69;4207493;28;5753;-62
2023/10/12 14:34:38;;;;;;;;;;;;;;;22.88;39.67;97162.69;4208639;28;5821;-62
2023/10/12 14:37:00;;;;;;;;;;;;;;;22.87;39.86;97153.78;4205927;28;5807;-61
2023/10/12 14:39:24;;;;;;;;;;;;;;;22.88;39.85;97162.69;4211792;28;5749;-60
2023/10/12 14:41:48;;;;;;;;;;;;;;;22.88;40.09;97157.31;4212163;28;5669;-61
2023/10/12 14:44:11;;;;;;;;;;;;;;;22.88;39.76;97152.72;4210574;28;5645;-60
2023/10/12 14:46:33;;;;;;;;;;;;;;;22.89;40.10;97159.72;4206248;28;5267;-61
2023/10/12 14:48:54;;;;;;;;;;;;;;;22.92;40.40;97161.91;4203508;28;5878;-61
2023/10/12 14:51:20;;;;;;;;;;;;;;;22.93;41.10;97154.63;4215000;28;5838;-61
2023/10/12 14:53:44;;;;;;;;;;;;;;;22.92;41.10;97150.31;4205896;28;5664;-61
2023/10/12 14:56:08;;;;;;;;;;;;;;;22.94;41.48;97156.25;4209607;28;6383;-62
2023/10/12 14:58:29;;;;;;;;;;;;;;;22.93;41.40;97149.22;4215166;28;7006;-62
2023/10/12 15:00:53;;;;;;;;;;;;;;;22.90;42.06;97150.56;4208848;28;5652;-61
2023/10/12 15:03:21;;;;;;;;;;;;;;;22.89;42.11;97146.25;4205431;28;5702;-62
2023/10/12 15:05:43;;;;;;;;;;;;;;;22.88;42.08;97143.81;4208212;28;5781;-60
2023/10/12 15:08:08;;;;;;;;;;;;;;;22.86;42.84;97145.94;4205380;28;5676;-61
2023/10/12 15:10:36;;;;;;;;;;;;;;;22.86;42.54;97143.25;4203307;28;6503;-60
2023/10/12 15:12:58;;;;;;;;;;;;;;;22.84;42.88;97138.13;4208500;28;5690;-62
2023/10/12 15:15:25;;;;;;;;;;;;;;;22.84;42.86;97143.53;4210178;28;5844;-61
2023/10/12 15:17:47;;;;;;;;;;;;;;;22.82;43.29;97140.25;4211982;28;5657;-63
2023/10/12 15:20:15;;;;;;;;;;;;;;;22.83;43.53;97141.06;4215798;28;5656;-62
2023/10/12 15:22:37;;;;;;;;;;;;;;;22.83;43.31;97139.22;4208665;28;5669;-61
2023/10/12 15:25:01;;;;;;;;;;;;;;;22.82;43.95;97136.75;4210244;28;5682;-62
2023/10/12 15:27:23;;;;;;;;;;;;;;;22.84;44.15;97140.00;4207061;28;5879;-62
2023/10/12 15:29:47;;;;;;;;;;;;;;;22.85;44.20;97141.63;4206295;28;5691;-62
2023/10/12 15:32:09;;;;;;;;;;;;;;;22.84;44.21;97145.41;4213321;28;5728;-62
2023/10/12 15:34:32;;;;;;;;;;;;;;;22.83;44.24;97143.75;4215358;28;5784;-63
2023/10/12 15:36:53;;;;;;;;;;;;;;;22.83;44.56;97147.28;4218434;28;5650;-61
2023/10/12 15:39:17;;;;;;;;;;;;;;;22.83;44.48;97138.38;4217963;28;5736;-60
2023/10/12 15:41:41;;;;;;;;;;;;;;;22.82;44.71;97147.53;4217584;28;5660;-61
2023/10/12 15:44:02;;;;;;;;;;;;;;;22.80;44.51;97147.00;4218382;28;5736;-61
2023/10/12 15:46:24;;;;;;;;;;;;;;;22.79;45.06;97143.47;4209771;28;5678;-62
2023/10/12 15:48:46;;;;;;;;;;;;;;;22.80;44.76;97150.50;4201209;28;5754;-62
2023/10/12 15:51:16;;;;;;;;;;;;;;;22.80;44.94;97147.78;4201597;28;5796;-61
2023/10/12 15:53:37;;;;;;;;;;;;;;;22.80;44.86;97150.50;4204605;28;5755;-63
2023/10/12 15:55:59;;;;;;;;;;;;;;;22.81;44.87;97151.31;4209291;28;5675;-61
2023/10/12 15:58:22;;;;;;;;;;;;;;;22.82;45.28;97147.53;4203129;28;5690;-62
2023/10/12 16:00:44;;;;;;;;;;;;;;;22.83;44.75;97155.38;4202324;28;5776;-62
2023/10/12 16:03:06;;;;;;;;;;;;;;;22.81;45.24;97141.31;4211962;28;5709;-61
2023/10/12 16:05:30;;;;;;;;;;;;;;;22.78;44.86;97147.25;4210624;28;5789;-61
2023/10/12 16:07:52;;;;;;;;;;;;;;;22.80;44.93;97155.06;4207755;28;5826;-62
2023/10/12 16:10:15;;;;;;;;;;;;;;;22.78;45.26;97151.84;4208961;28;6395;-62
2023/10/12 16:12:37;;;;;;;;;;;;;;;22.79;44.85;97146.19;4209180;28;5743;-62
2023/10/12 16:15:01;;;;;;;;;;;;;;;22.79;45.00;97148.88;4206691;28;5686;-61
2023/10/12 16:17:22;;;;;;;;;;;;;;;22.79;45.54;97151.56;4213719;28;5927;-62
2023/10/12 16:19:44;;;;;;;;;;;;;;;22.79;45.60;97156.16;4205383;28;5728;-62
2023/10/12 16:22:08;;;;;;;;;;;;;;;22.80;45.82;97152.38;4205547;28;5694;-62
2023/10/12 16:24:30;;;;;;;;;;;;;;;22.80;45.70;97150.50;4203999;28;6585;-62
2023/10/12 16:26:51;;;;;;;;;;;;;;;22.77;46.15;97147.53;4203267;28;5769;-61
2023/10/12 16:29:12;;;;;;;;;;;;;;;22.77;46.21;97155.59;4207236;28;5676;-61
2023/10/12 16:31:35;;;;;;;;;;;;;;;22.74;46.39;97156.09;4206763;28;5891;-62
2023/10/12 16:33:59;;;;;;;;;;;;;;;22.73;46.50;97166.06;4204793;28;5824;-62
2023/10/12 16:36:21;;;;;;;;;;;;;;;22.72;46.55;97169.84;4202613;28;5777;-63
2023/10/12 16:38:43;;;;;;;;;;;;;;;22.71;46.91;97167.41;4206177;28;5743;-61
2023/10/12 16:41:06;;;;;;;;;;;;;;;22.69;46.82;97169.56;4212006;28;5678;-62
2023/10/12 16:43:28;;;;;;;;;;;;;;;22.67;46.70;97170.63;4203927;28;5793;-61
2023/10/12 16:45:50;;;;;;;;;;;;;;;22.66;47.06;97170.91;4204105;28;5776;-60
2023/10/12 16:48:13;;;;;;;;;;;;;;;22.62;46.97;97165.22;4198530;28;5678;-70
2023/10/12 16:50:36;;;;;;;;;;;;;;;22.59;47.34;97179.22;4203142;28;5686;-70
2023/10/12 16:52:59;;;;;;;;;;;;;;;22.58;47.48;97171.38;4203938;28;5657;-66
2023/10/12 16:55:21;;;;;;;;;;;;;;;22.56;47.13;97179.75;4206925;28;5783;-61
2023/10/12 16:57:43;;;;;;;;;;;;;;;22.55;47.32;97177.31;4205403;28;5863;-62
2023/10/12 17:00:07;;;;;;;;;;;;;;;22.53;47.53;97177.53;4202491;28;5765;-61
2023/10/12 17:02:32;;;;;;;;;;;;;;;22.53;47.67;97182.94;4206808;28;5740;-61
2023/10/12 17:04:59;;;;;;;;;;;;;;;22.51;47.46;97178.88;4206701;28;6029;-62
2023/10/12 17:07:23;;;;;;;;;;;;;;;22.49;47.25;97181.03;4207441;28;5661;-59
2023/10/12 17:09:45;;;;;;;;;;;;;;;22.49;47.51;97183.72;4208191;28;5784;-63
2023/10/12 17:12:07;;;;;;;;;;;;;;;22.49;47.71;97187.22;4208116;28;5861;-61
2023/10/12 17:14:28;;;;;;;;;;;;;;;22.47;47.57;97178.59;4204017;28;5262;-61
2023/10/12 17:16:49;;;;;;;;;;;;;;;22.47;47.63;97183.19;4200131;28;5692;-61
2023/10/12 17:19:11;;;;;;;;;;;;;;;22.46;47.39;97181.56;4206475;28;5831;-61
2023/10/12 17:21:34;;;;;;;;;;;;;;;22.45;47.74;97180.75;4203792;28;5859;-61
2023/10/12 17:23:57;;;;;;;;;;;;;;;22.43;47.54;97180.19;4204759;28;5768;-61
2023/10/12 17:26:22;;;;;;;;;;;;;;;22.43;47.57;97187.47;4201620;28;5664;-62
2023/10/12 17:28:44;;;;;;;;;;;;;;;22.42;48.05;97183.13;4205575;28;5803;-60
2023/10/12 17:31:06;;;;;;;;;;;;;;;22.40;48.09;97182.56;4201097;28;5893;-64
2023/10/12 17:33:29;;;;;;;;;;;;;;;22.39;47.91;97187.16;4206507;28;5672;-63
2023/10/12 17:35:51;;;;;;;;;;;;;;;22.38;48.07;97183.66;4203452;28;5850;-63
2023/10/12 17:38:16;;;;;;;;;;;;;;;22.38;47.90;97185.53;4205135;28;5751;-62
2023/10/12 17:40:39;;;;;;;;;;;;;;;22.36;48.32;97179.59;4207215;28;5759;-62
2023/10/12 17:43:04;;;;;;;;;;;;;;;22.35;48.07;97186.06;4207205;28;5736;-62
2023/10/12 17:45:26;;;;;;;;;;;;;;;22.33;48.38;97188.19;4204717;28;5759;-62
2023/10/12 17:47:49;;;;;;;;;;;;;;;22.32;47.93;97191.97;4204829;28;5789;-61
2023/10/12 17:50:12;;;;;;;;;;;;;;;22.31;48.25;97204.63;4204110;28;5736;-63
2023/10/12 17:52:34;;;;;;;;;;;;;;;22.31;48.28;97198.41;4204455;28;5649;-60
2023/10/12 17:54:57;;;;;;;;;;;;;;;22.29;47.88;97198.66;4202264;28;5899;-60
2023/10/12 17:57:19;;;;;;;;;;;;;;;22.27;47.98;97198.13;4200100;28;5686;-60
2023/10/12 17:59:46;;;;;;;;;;;;;;;22.26;48.05;97209.16;4198770;28;5689;-59
2023/10/12 18:02:08;;;;;;;;;;;;;;;22.25;48.08;97210.22;4204382;28;5770;-60
2023/10/12 18:04:30;;;;;;;;;;;;;;;22.25;48.15;97215.59;4204860;28;5777;-60